sensor_id;sensor_type;location;lat;lon;timestamp;P1;durP1;ratioP1;P2;durP2;ratioP2
9712;SDS011;4895;50.926;6.870;2023-02-28T00:00:41;5.33;;;2.80;;
9712;SDS011;4895;50.926;6.870;2023-02-28T00:03:08;5.23;;;2.50;;
9712;SDS011;4895;50.926;6.870;2023-02-28T00:05:33;6.57;;;2.80;;
9712;SDS011;4895;50.926;6.870;2023-02-28T00:07:58;8.13;;;2.50;;
9712;SDS011;4895;50.926;6.870;2023-02-28T00:10:25;3.70;;;2.40;;
9712;SDS011;4895;50.926;6.870;2023-02-28T00:12:52;4.43;;;2.50;;
9712;SDS011;4895;50.926;6.870;2023-02-28T00:15:19;7.77;;;2.80;;
9712;SDS011;4895;50.926;6.870;2023-02-28T00:17:44;4.93;;;2.70;;
9712;SDS011;4895;50.926;6.870;2023-02-28T00:20:10;5.20;;;2.70;;
9712;SDS011;4895;50.926;6.870;2023-02-28T00:22:44;4.40;;;2.57;;
9712;SDS011;4895;50.926;6.870;2023-02-28T00:25:11;6.17;;;2.60;;
9712;SDS011;4895;50.926;6.870;2023-02-28T00:27:39;4.80;;;2.43;;
9712;SDS011;4895;50.926;6.870;2023-02-28T00:30:05;5.93;;;2.37;;
9712;SDS011;4895;50.926;6.870;2023-02-28T00:32:34;5.17;;;2.43;;
9712;SDS011;4895;50.926;6.870;2023-02-28T00:35:00;3.90;;;2.43;;
9712;SDS011;4895;50.926;6.870;2023-02-28T00:37:26;7.97;;;3.10;;
9712;SDS011;4895;50.926;6.870;2023-02-28T00:39:51;6.60;;;2.63;;
9712;SDS011;4895;50.926;6.870;2023-02-28T00:42:16;5.17;;;2.50;;
9712;SDS011;4895;50.926;6.870;2023-02-28T00:44:42;7.57;;;3.10;;
9712;SDS011;4895;50.926;6.870;2023-02-28T00:47:07;5.27;;;2.50;;
9712;SDS011;4895;50.926;6.870;2023-02-28T00:49:32;4.83;;;2.60;;
9712;SDS011;4895;50.926;6.870;2023-02-28T00:51:58;6.03;;;2.30;;
9712;SDS011;4895;50.926;6.870;2023-02-28T00:54:23;10.33;;;4.13;;
9712;SDS011;4895;50.926;6.870;2023-02-28T00:56:49;5.50;;;2.77;;
9712;SDS011;4895;50.926;6.870;2023-02-28T00:59:16;8.30;;;2.73;;
9712;SDS011;4895;50.926;6.870;2023-02-28T01:01:43;5.33;;;2.47;;
9712;SDS011;4895;50.926;6.870;2023-02-28T01:04:09;5.57;;;2.20;;
9712;SDS011;4895;50.926;6.870;2023-02-28T01:06:34;4.10;;;2.37;;
9712;SDS011;4895;50.926;6.870;2023-02-28T01:09:00;5.83;;;2.60;;
9712;SDS011;4895;50.926;6.870;2023-02-28T01:11:26;5.20;;;2.80;;
9712;SDS011;4895;50.926;6.870;2023-02-28T01:13:51;5.40;;;2.23;;
9712;SDS011;4895;50.926;6.870;2023-02-28T01:16:17;3.57;;;2.30;;
9712;SDS011;4895;50.926;6.870;2023-02-28T01:18:43;6.10;;;2.30;;
9712;SDS011;4895;50.926;6.870;2023-02-28T01:21:12;5.03;;;2.60;;
9712;SDS011;4895;50.926;6.870;2023-02-28T01:23:39;5.60;;;2.30;;
9712;SDS011;4895;50.926;6.870;2023-02-28T01:28:31;5.03;;;2.73;;
9712;SDS011;4895;50.926;6.870;2023-02-28T01:30:56;5.73;;;2.33;;
9712;SDS011;4895;50.926;6.870;2023-02-28T01:33:22;4.67;;;2.67;;
9712;SDS011;4895;50.926;6.870;2023-02-28T01:35:47;5.53;;;2.70;;
9712;SDS011;4895;50.926;6.870;2023-02-28T01:38:13;6.70;;;3.00;;
9712;SDS011;4895;50.926;6.870;2023-02-28T01:40:38;6.00;;;2.70;;
9712;SDS011;4895;50.926;6.870;2023-02-28T01:43:05;3.47;;;2.43;;
9712;SDS011;4895;50.926;6.870;2023-02-28T01:45:42;4.33;;;2.37;;
9712;SDS011;4895;50.926;6.870;2023-02-28T01:48:07;7.93;;;3.10;;
9712;SDS011;4895;50.926;6.870;2023-02-28T01:50:37;9.00;;;2.50;;
9712;SDS011;4895;50.926;6.870;2023-02-28T01:53:05;6.00;;;2.80;;
9712;SDS011;4895;50.926;6.870;2023-02-28T01:55:32;4.03;;;2.27;;
9712;SDS011;4895;50.926;6.870;2023-02-28T01:57:58;5.63;;;2.50;;
9712;SDS011;4895;50.926;6.870;2023-02-28T02:00:26;5.40;;;2.80;;
9712;SDS011;4895;50.926;6.870;2023-02-28T02:02:53;4.13;;;2.57;;
9712;SDS011;4895;50.926;6.870;2023-02-28T02:05:24;4.70;;;2.50;;
9712;SDS011;4895;50.926;6.870;2023-02-28T02:07:52;6.13;;;1.97;;
9712;SDS011;4895;50.926;6.870;2023-02-28T02:10:20;3.80;;;2.00;;
9712;SDS011;4895;50.926;6.870;2023-02-28T02:38:15;3.80;;;2.40;;
9712;SDS011;4895;50.926;6.870;2023-02-28T02:40:47;5.27;;;2.43;;
9712;SDS011;4895;50.926;6.870;2023-02-28T02:43:20;6.50;;;2.37;;
9712;SDS011;4895;50.926;6.870;2023-02-28T02:45:51;3.53;;;2.37;;
9712;SDS011;4895;50.926;6.870;2023-02-28T02:48:19;4.60;;;2.57;;
9712;SDS011;4895;50.926;6.870;2023-02-28T02:50:50;2.80;;;2.20;;
9712;SDS011;4895;50.926;6.870;2023-02-28T02:53:19;6.03;;;2.33;;
9712;SDS011;4895;50.926;6.870;2023-02-28T02:55:48;4.67;;;1.97;;
9712;SDS011;4895;50.926;6.870;2023-02-28T02:58:19;4.60;;;2.40;;
9712;SDS011;4895;50.926;6.870;2023-02-28T03:00:48;6.13;;;2.60;;
9712;SDS011;4895;50.926;6.870;2023-02-28T03:03:16;4.97;;;2.20;;
9712;SDS011;4895;50.926;6.870;2023-02-28T03:05:47;5.10;;;1.80;;
9712;SDS011;4895;50.926;6.870;2023-02-28T03:08:14;4.07;;;2.50;;
9712;SDS011;4895;50.926;6.870;2023-02-28T03:10:41;3.77;;;2.10;;
9712;SDS011;4895;50.926;6.870;2023-02-28T03:27:53;5.03;;;2.20;;
9712;SDS011;4895;50.926;6.870;2023-02-28T03:33:15;4.13;;;2.10;;
9712;SDS011;4895;50.926;6.870;2023-02-28T03:35:53;3.27;;;2.20;;
9712;SDS011;4895;50.926;6.870;2023-02-28T03:41:05;7.03;;;2.50;;
9712;SDS011;4895;50.926;6.870;2023-02-28T03:43:36;3.43;;;2.13;;
9712;SDS011;4895;50.926;6.870;2023-02-28T03:46:06;5.57;;;2.27;;
9712;SDS011;4895;50.926;6.870;2023-02-28T03:48:41;3.83;;;2.00;;
9712;SDS011;4895;50.926;6.870;2023-02-28T03:51:12;3.43;;;2.23;;
9712;SDS011;4895;50.926;6.870;2023-02-28T03:53:42;5.33;;;2.57;;
9712;SDS011;4895;50.926;6.870;2023-02-28T03:56:21;4.73;;;2.50;;
9712;SDS011;4895;50.926;6.870;2023-02-28T03:59:07;7.43;;;2.60;;
9712;SDS011;4895;50.926;6.870;2023-02-28T04:04:06;5.90;;;2.90;;
9712;SDS011;4895;50.926;6.870;2023-02-28T04:06:32;3.20;;;2.10;;
9712;SDS011;4895;50.926;6.870;2023-02-28T04:08:58;6.17;;;2.50;;
9712;SDS011;4895;50.926;6.870;2023-02-28T04:11:31;3.90;;;2.43;;
9712;SDS011;4895;50.926;6.870;2023-02-28T04:16:29;4.67;;;2.37;;
9712;SDS011;4895;50.926;6.870;2023-02-28T04:18:55;3.83;;;2.43;;
9712;SDS011;4895;50.926;6.870;2023-02-28T04:21:27;8.13;;;3.07;;
9712;SDS011;4895;50.926;6.870;2023-02-28T04:23:53;7.03;;;2.30;;
9712;SDS011;4895;50.926;6.870;2023-02-28T04:26:18;5.40;;;2.77;;
9712;SDS011;4895;50.926;6.870;2023-02-28T04:28:44;6.50;;;3.00;;
9712;SDS011;4895;50.926;6.870;2023-02-28T04:31:09;5.30;;;2.60;;
9712;SDS011;4895;50.926;6.870;2023-02-28T04:33:34;6.10;;;3.10;;
9712;SDS011;4895;50.926;6.870;2023-02-28T04:36:06;6.87;;;3.10;;
9712;SDS011;4895;50.926;6.870;2023-02-28T04:38:34;5.47;;;3.03;;
9712;SDS011;4895;50.926;6.870;2023-02-28T04:41:01;6.30;;;3.30;;
9712;SDS011;4895;50.926;6.870;2023-02-28T04:43:27;8.60;;;3.23;;
9712;SDS011;4895;50.926;6.870;2023-02-28T04:45:53;5.63;;;3.10;;
9712;SDS011;4895;50.926;6.870;2023-02-28T04:48:21;9.13;;;2.70;;
9712;SDS011;4895;50.926;6.870;2023-02-28T04:50:48;4.17;;;2.70;;
9712;SDS011;4895;50.926;6.870;2023-02-28T04:53:13;5.30;;;2.67;;
9712;SDS011;4895;50.926;6.870;2023-02-28T04:55:38;5.60;;;3.07;;
9712;SDS011;4895;50.926;6.870;2023-02-28T04:58:05;4.23;;;2.80;;
9712;SDS011;4895;50.926;6.870;2023-02-28T05:00:30;4.90;;;2.50;;
9712;SDS011;4895;50.926;6.870;2023-02-28T05:02:56;7.10;;;3.30;;
9712;SDS011;4895;50.926;6.870;2023-02-28T05:05:21;5.33;;;2.60;;
9712;SDS011;4895;50.926;6.870;2023-02-28T05:07:46;3.37;;;2.43;;
9712;SDS011;4895;50.926;6.870;2023-02-28T05:10:12;3.77;;;2.47;;
9712;SDS011;4895;50.926;6.870;2023-02-28T05:12:37;7.67;;;2.97;;
9712;SDS011;4895;50.926;6.870;2023-02-28T05:15:03;4.73;;;2.43;;
9712;SDS011;4895;50.926;6.870;2023-02-28T05:17:30;6.40;;;2.60;;
9712;SDS011;4895;50.926;6.870;2023-02-28T05:19:55;3.90;;;2.30;;
9712;SDS011;4895;50.926;6.870;2023-02-28T05:22:20;6.83;;;2.87;;
9712;SDS011;4895;50.926;6.870;2023-02-28T05:24:46;5.23;;;2.90;;
9712;SDS011;4895;50.926;6.870;2023-02-28T05:27:11;5.17;;;2.53;;
9712;SDS011;4895;50.926;6.870;2023-02-28T05:29:36;3.70;;;2.40;;
9712;SDS011;4895;50.926;6.870;2023-02-28T05:32:07;4.87;;;2.60;;
9712;SDS011;4895;50.926;6.870;2023-02-28T05:34:33;4.97;;;2.70;;
9712;SDS011;4895;50.926;6.870;2023-02-28T05:36:59;3.67;;;2.50;;
9712;SDS011;4895;50.926;6.870;2023-02-28T05:39:24;4.60;;;2.60;;
9712;SDS011;4895;50.926;6.870;2023-02-28T05:41:50;4.97;;;2.70;;
9712;SDS011;4895;50.926;6.870;2023-02-28T05:44:15;6.80;;;3.20;;
9712;SDS011;4895;50.926;6.870;2023-02-28T05:46:40;5.27;;;2.90;;
9712;SDS011;4895;50.926;6.870;2023-02-28T05:49:05;4.87;;;2.60;;
9712;SDS011;4895;50.926;6.870;2023-02-28T05:51:31;4.63;;;2.37;;
9712;SDS011;4895;50.926;6.870;2023-02-28T05:53:58;7.00;;;2.60;;
9712;SDS011;4895;50.926;6.870;2023-02-28T05:56:25;4.33;;;2.80;;
9712;SDS011;4895;50.926;6.870;2023-02-28T05:58:50;3.63;;;2.37;;
9712;SDS011;4895;50.926;6.870;2023-02-28T06:01:20;3.63;;;2.77;;
9712;SDS011;4895;50.926;6.870;2023-02-28T06:03:45;4.93;;;2.70;;
9712;SDS011;4895;50.926;6.870;2023-02-28T06:06:10;5.47;;;2.43;;
9712;SDS011;4895;50.926;6.870;2023-02-28T06:08:36;4.00;;;2.43;;
9712;SDS011;4895;50.926;6.870;2023-02-28T06:11:04;6.47;;;3.00;;
9712;SDS011;4895;50.926;6.870;2023-02-28T06:13:29;5.40;;;2.37;;
9712;SDS011;4895;50.926;6.870;2023-02-28T06:15:55;6.10;;;2.67;;
9712;SDS011;4895;50.926;6.870;2023-02-28T06:18:20;5.93;;;2.67;;
9712;SDS011;4895;50.926;6.870;2023-02-28T06:20:51;6.50;;;3.43;;
9712;SDS011;4895;50.926;6.870;2023-02-28T06:23:19;4.03;;;2.30;;
9712;SDS011;4895;50.926;6.870;2023-02-28T06:25:45;4.20;;;2.43;;
9712;SDS011;4895;50.926;6.870;2023-02-28T06:28:10;4.30;;;2.60;;
9712;SDS011;4895;50.926;6.870;2023-02-28T06:30:36;6.10;;;2.60;;
9712;SDS011;4895;50.926;6.870;2023-02-28T06:33:02;5.13;;;2.33;;
9712;SDS011;4895;50.926;6.870;2023-02-28T06:35:28;3.60;;;2.50;;
9712;SDS011;4895;50.926;6.870;2023-02-28T06:37:53;3.27;;;2.33;;
9712;SDS011;4895;50.926;6.870;2023-02-28T06:40:18;5.27;;;2.73;;
9712;SDS011;4895;50.926;6.870;2023-02-28T06:42:44;5.20;;;2.70;;
9712;SDS011;4895;50.926;6.870;2023-02-28T06:45:09;4.77;;;2.43;;
9712;SDS011;4895;50.926;6.870;2023-02-28T06:47:39;6.53;;;2.73;;
9712;SDS011;4895;50.926;6.870;2023-02-28T06:50:06;5.87;;;2.97;;
9712;SDS011;4895;50.926;6.870;2023-02-28T06:52:34;7.63;;;3.00;;
9712;SDS011;4895;50.926;6.870;2023-02-28T06:55:02;6.67;;;3.00;;
9712;SDS011;4895;50.926;6.870;2023-02-28T06:57:29;6.27;;;2.97;;
9712;SDS011;4895;50.926;6.870;2023-02-28T06:59:58;3.60;;;2.50;;
9712;SDS011;4895;50.926;6.870;2023-02-28T07:02:24;5.57;;;2.60;;
9712;SDS011;4895;50.926;6.870;2023-02-28T07:04:50;3.90;;;2.40;;
9712;SDS011;4895;50.926;6.870;2023-02-28T07:07:15;5.77;;;2.83;;
9712;SDS011;4895;50.926;6.870;2023-02-28T07:09:41;4.07;;;2.70;;
9712;SDS011;4895;50.926;6.870;2023-02-28T07:12:06;7.80;;;2.87;;
9712;SDS011;4895;50.926;6.870;2023-02-28T07:14:31;3.83;;;2.37;;
9712;SDS011;4895;50.926;6.870;2023-02-28T07:16:56;5.63;;;2.70;;
9712;SDS011;4895;50.926;6.870;2023-02-28T07:19:22;6.90;;;3.00;;
9712;SDS011;4895;50.926;6.870;2023-02-28T07:21:47;5.33;;;2.40;;
9712;SDS011;4895;50.926;6.870;2023-02-28T07:24:12;5.60;;;3.10;;
9712;SDS011;4895;50.926;6.870;2023-02-28T07:26:40;3.90;;;2.60;;
9712;SDS011;4895;50.926;6.870;2023-02-28T07:29:06;7.67;;;2.93;;
9712;SDS011;4895;50.926;6.870;2023-02-28T07:31:31;3.73;;;2.03;;
9712;SDS011;4895;50.926;6.870;2023-02-28T07:33:56;7.50;;;3.17;;
9712;SDS011;4895;50.926;6.870;2023-02-28T07:36:22;5.97;;;2.90;;
9712;SDS011;4895;50.926;6.870;2023-02-28T07:38:47;5.60;;;2.40;;
9712;SDS011;4895;50.926;6.870;2023-02-28T07:41:17;5.47;;;3.03;;
9712;SDS011;4895;50.926;6.870;2023-02-28T07:43:44;4.37;;;3.23;;
9712;SDS011;4895;50.926;6.870;2023-02-28T07:46:10;3.93;;;2.40;;
9712;SDS011;4895;50.926;6.870;2023-02-28T07:48:37;8.37;;;2.83;;
9712;SDS011;4895;50.926;6.870;2023-02-28T07:51:03;3.93;;;2.50;;
9712;SDS011;4895;50.926;6.870;2023-02-28T07:53:28;2.93;;;2.33;;
9712;SDS011;4895;50.926;6.870;2023-02-28T07:55:55;5.20;;;2.83;;
9712;SDS011;4895;50.926;6.870;2023-02-28T07:58:21;5.60;;;2.20;;
9712;SDS011;4895;50.926;6.870;2023-02-28T08:00:46;6.60;;;2.83;;
9712;SDS011;4895;50.926;6.870;2023-02-28T08:03:11;6.90;;;2.43;;
9712;SDS011;4895;50.926;6.870;2023-02-28T08:05:38;8.60;;;2.87;;
9712;SDS011;4895;50.926;6.870;2023-02-28T08:08:06;3.50;;;2.37;;
9712;SDS011;4895;50.926;6.870;2023-02-28T08:10:32;3.83;;;2.40;;
9712;SDS011;4895;50.926;6.870;2023-02-28T08:12:58;13.43;;;2.60;;
9712;SDS011;4895;50.926;6.870;2023-02-28T08:15:23;4.43;;;2.37;;
9712;SDS011;4895;50.926;6.870;2023-02-28T08:17:48;6.67;;;2.43;;
9712;SDS011;4895;50.926;6.870;2023-02-28T08:20:14;3.83;;;2.37;;
9712;SDS011;4895;50.926;6.870;2023-02-28T08:22:39;4.63;;;2.47;;
9712;SDS011;4895;50.926;6.870;2023-02-28T08:25:04;4.27;;;2.33;;
9712;SDS011;4895;50.926;6.870;2023-02-28T08:27:32;4.87;;;2.40;;
9712;SDS011;4895;50.926;6.870;2023-02-28T08:29:57;2.80;;;2.07;;
9712;SDS011;4895;50.926;6.870;2023-02-28T08:32:22;4.10;;;2.50;;
9712;SDS011;4895;50.926;6.870;2023-02-28T08:34:48;4.70;;;2.10;;
9712;SDS011;4895;50.926;6.870;2023-02-28T08:37:13;7.80;;;2.30;;
9712;SDS011;4895;50.926;6.870;2023-02-28T08:39:38;3.67;;;2.20;;
9712;SDS011;4895;50.926;6.870;2023-02-28T08:42:04;2.23;;;1.80;;
9712;SDS011;4895;50.926;6.870;2023-02-28T08:44:29;4.20;;;2.20;;
9712;SDS011;4895;50.926;6.870;2023-02-28T08:46:55;4.13;;;2.20;;
9712;SDS011;4895;50.926;6.870;2023-02-28T08:49:20;3.40;;;2.23;;
9712;SDS011;4895;50.926;6.870;2023-02-28T08:51:45;3.63;;;2.00;;
9712;SDS011;4895;50.926;6.870;2023-02-28T08:54:11;3.03;;;2.00;;
9712;SDS011;4895;50.926;6.870;2023-02-28T08:56:41;2.20;;;1.73;;
9712;SDS011;4895;50.926;6.870;2023-02-28T08:59:08;3.40;;;1.83;;
9712;SDS011;4895;50.926;6.870;2023-02-28T09:01:34;5.40;;;1.70;;
9712;SDS011;4895;50.926;6.870;2023-02-28T09:04:01;2.93;;;1.80;;
9712;SDS011;4895;50.926;6.870;2023-02-28T09:06:27;3.03;;;1.40;;
9712;SDS011;4895;50.926;6.870;2023-02-28T09:08:52;2.07;;;1.60;;
9712;SDS011;4895;50.926;6.870;2023-02-28T09:11:18;2.47;;;1.67;;
9712;SDS011;4895;50.926;6.870;2023-02-28T09:13:44;4.10;;;1.57;;
9712;SDS011;4895;50.926;6.870;2023-02-28T09:16:11;2.90;;;1.50;;
9712;SDS011;4895;50.926;6.870;2023-02-28T09:18:38;2.63;;;1.67;;
9712;SDS011;4895;50.926;6.870;2023-02-28T09:21:04;2.27;;;1.43;;
9712;SDS011;4895;50.926;6.870;2023-02-28T09:23:30;3.50;;;2.00;;
9712;SDS011;4895;50.926;6.870;2023-02-28T09:25:56;2.50;;;1.47;;
9712;SDS011;4895;50.926;6.870;2023-02-28T09:28:22;2.93;;;1.57;;
9712;SDS011;4895;50.926;6.870;2023-02-28T09:30:49;2.30;;;1.50;;
9712;SDS011;4895;50.926;6.870;2023-02-28T09:33:16;3.00;;;1.60;;
9712;SDS011;4895;50.926;6.870;2023-02-28T09:35:42;5.73;;;1.83;;
9712;SDS011;4895;50.926;6.870;2023-02-28T09:38:08;5.97;;;1.80;;
9712;SDS011;4895;50.926;6.870;2023-02-28T09:40:39;2.90;;;1.87;;
9712;SDS011;4895;50.926;6.870;2023-02-28T09:43:21;2.27;;;1.57;;
9712;SDS011;4895;50.926;6.870;2023-02-28T09:46:02;6.43;;;1.60;;
9712;SDS011;4895;50.926;6.870;2023-02-28T09:48:36;5.70;;;1.80;;
9712;SDS011;4895;50.926;6.870;2023-02-28T09:54:14;2.93;;;1.83;;
9712;SDS011;4895;50.926;6.870;2023-02-28T09:56:44;3.80;;;1.60;;
9712;SDS011;4895;50.926;6.870;2023-02-28T09:59:39;2.67;;;1.67;;
9712;SDS011;4895;50.926;6.870;2023-02-28T10:02:21;2.77;;;1.73;;
9712;SDS011;4895;50.926;6.870;2023-02-28T10:05:00;2.70;;;1.50;;
9712;SDS011;4895;50.926;6.870;2023-02-28T10:10:06;4.67;;;1.70;;
9712;SDS011;4895;50.926;6.870;2023-02-28T10:12:39;4.00;;;2.00;;
9712;SDS011;4895;50.926;6.870;2023-02-28T10:15:07;3.27;;;1.67;;
9712;SDS011;4895;50.926;6.870;2023-02-28T10:17:39;5.33;;;1.90;;
9712;SDS011;4895;50.926;6.870;2023-02-28T10:20:07;2.97;;;1.80;;
9712;SDS011;4895;50.926;6.870;2023-02-28T10:25:24;3.60;;;1.77;;
9712;SDS011;4895;50.926;6.870;2023-02-28T10:28:01;3.40;;;1.73;;
9712;SDS011;4895;50.926;6.870;2023-02-28T10:30:33;5.43;;;2.07;;
9712;SDS011;4895;50.926;6.870;2023-02-28T10:33:03;5.90;;;1.93;;
9712;SDS011;4895;50.926;6.870;2023-02-28T10:35:28;2.93;;;1.97;;
9712;SDS011;4895;50.926;6.870;2023-02-28T10:37:54;2.80;;;1.60;;
9712;SDS011;4895;50.926;6.870;2023-02-28T10:45:23;3.83;;;2.00;;
9712;SDS011;4895;50.926;6.870;2023-02-28T10:47:59;3.37;;;1.90;;
9712;SDS011;4895;50.926;6.870;2023-02-28T10:52:52;5.50;;;1.73;;
9712;SDS011;4895;50.926;6.870;2023-02-28T10:55:22;2.80;;;1.73;;
9712;SDS011;4895;50.926;6.870;2023-02-28T10:57:50;4.90;;;1.87;;
9712;SDS011;4895;50.926;6.870;2023-02-28T11:00:17;2.60;;;1.97;;
9712;SDS011;4895;50.926;6.870;2023-02-28T11:02:46;3.50;;;2.10;;
9712;SDS011;4895;50.926;6.870;2023-02-28T11:05:29;3.73;;;2.10;;
9712;SDS011;4895;50.926;6.870;2023-02-28T11:08:31;4.60;;;2.20;;
9712;SDS011;4895;50.926;6.870;2023-02-28T11:10:56;3.90;;;2.13;;
9712;SDS011;4895;50.926;6.870;2023-02-28T11:13:41;4.90;;;2.30;;
9712;SDS011;4895;50.926;6.870;2023-02-28T11:16:08;3.03;;;2.13;;
9712;SDS011;4895;50.926;6.870;2023-02-28T11:18:52;2.57;;;1.80;;
9712;SDS011;4895;50.926;6.870;2023-02-28T11:21:23;3.23;;;2.00;;
9712;SDS011;4895;50.926;6.870;2023-02-28T11:23:53;2.93;;;2.10;;
9712;SDS011;4895;50.926;6.870;2023-02-28T11:29:29;3.40;;;2.20;;
9712;SDS011;4895;50.926;6.870;2023-02-28T11:32:05;3.77;;;2.30;;
9712;SDS011;4895;50.926;6.870;2023-02-28T11:34:34;3.60;;;2.00;;
9712;SDS011;4895;50.926;6.870;2023-02-28T11:37:00;4.67;;;2.57;;
9712;SDS011;4895;50.926;6.870;2023-02-28T11:39:29;5.30;;;2.03;;
9712;SDS011;4895;50.926;6.870;2023-02-28T11:47:38;2.73;;;1.90;;
9712;SDS011;4895;50.926;6.870;2023-02-28T11:52:48;6.77;;;2.40;;
9712;SDS011;4895;50.926;6.870;2023-02-28T11:55:19;2.93;;;2.03;;
9712;SDS011;4895;50.926;6.870;2023-02-28T12:03:58;4.40;;;2.23;;
9712;SDS011;4895;50.926;6.870;2023-02-28T12:06:42;3.20;;;2.53;;
9712;SDS011;4895;50.926;6.870;2023-02-28T12:11:45;6.03;;;2.97;;
9712;SDS011;4895;50.926;6.870;2023-02-28T12:17:20;5.60;;;2.60;;
9712;SDS011;4895;50.926;6.870;2023-02-28T12:19:58;5.60;;;3.00;;
9712;SDS011;4895;50.926;6.870;2023-02-28T12:22:31;5.83;;;2.57;;
9712;SDS011;4895;50.926;6.870;2023-02-28T12:27:32;4.50;;;2.23;;
9712;SDS011;4895;50.926;6.870;2023-02-28T12:30:04;3.67;;;2.63;;
9712;SDS011;4895;50.926;6.870;2023-02-28T12:32:35;5.60;;;2.70;;
9712;SDS011;4895;50.926;6.870;2023-02-28T12:35:11;4.10;;;2.50;;
9712;SDS011;4895;50.926;6.870;2023-02-28T12:37:40;4.23;;;2.43;;
9712;SDS011;4895;50.926;6.870;2023-02-28T12:40:13;4.30;;;2.17;;
9712;SDS011;4895;50.926;6.870;2023-02-28T12:42:42;3.80;;;2.60;;
9712;SDS011;4895;50.926;6.870;2023-02-28T12:45:18;3.30;;;2.50;;
9712;SDS011;4895;50.926;6.870;2023-02-28T12:47:45;5.50;;;2.77;;
9712;SDS011;4895;50.926;6.870;2023-02-28T12:50:17;4.73;;;2.30;;
9712;SDS011;4895;50.926;6.870;2023-02-28T12:58:43;4.23;;;2.50;;
9712;SDS011;4895;50.926;6.870;2023-02-28T13:09:38;3.60;;;2.50;;
9712;SDS011;4895;50.926;6.870;2023-02-28T13:12:12;3.30;;;2.57;;
9712;SDS011;4895;50.926;6.870;2023-02-28T13:14:38;4.07;;;2.30;;
9712;SDS011;4895;50.926;6.870;2023-02-28T13:19:36;4.00;;;2.37;;
9712;SDS011;4895;50.926;6.870;2023-02-28T13:22:03;9.10;;;2.80;;
9712;SDS011;4895;50.926;6.870;2023-02-28T13:24:37;4.20;;;2.70;;
9712;SDS011;4895;50.926;6.870;2023-02-28T13:27:11;4.40;;;2.60;;
9712;SDS011;4895;50.926;6.870;2023-02-28T13:29:48;5.33;;;3.00;;
9712;SDS011;4895;50.926;6.870;2023-02-28T13:34:40;6.03;;;2.90;;
9712;SDS011;4895;50.926;6.870;2023-02-28T13:39:52;8.60;;;2.40;;
9712;SDS011;4895;50.926;6.870;2023-02-28T14:06:37;5.80;;;3.10;;
9712;SDS011;4895;50.926;6.870;2023-02-28T14:11:51;5.43;;;3.30;;
9712;SDS011;4895;50.926;6.870;2023-02-28T14:14:58;4.17;;;3.07;;
9712;SDS011;4895;50.926;6.870;2023-02-28T14:17:06;5.00;;;3.10;;
9712;SDS011;4895;50.926;6.870;2023-02-28T14:19:34;4.10;;;2.80;;
9712;SDS011;4895;50.926;6.870;2023-02-28T14:25:06;5.70;;;2.60;;
9712;SDS011;4895;50.926;6.870;2023-02-28T14:38:27;7.67;;;3.50;;
9712;SDS011;4895;50.926;6.870;2023-02-28T14:40:56;3.93;;;2.70;;
9712;SDS011;4895;50.926;6.870;2023-02-28T14:43:25;4.73;;;3.10;;
9712;SDS011;4895;50.926;6.870;2023-02-28T14:45:51;3.70;;;2.53;;
9712;SDS011;4895;50.926;6.870;2023-02-28T14:48:19;4.70;;;3.27;;
9712;SDS011;4895;50.926;6.870;2023-02-28T14:50:49;8.80;;;3.20;;
9712;SDS011;4895;50.926;6.870;2023-02-28T14:53:17;6.10;;;3.20;;
9712;SDS011;4895;50.926;6.870;2023-02-28T14:55:45;4.57;;;2.90;;
9712;SDS011;4895;50.926;6.870;2023-02-28T14:58:21;6.60;;;3.10;;
9712;SDS011;4895;50.926;6.870;2023-02-28T15:00:51;6.40;;;3.40;;
9712;SDS011;4895;50.926;6.870;2023-02-28T15:05:58;4.40;;;3.20;;
9712;SDS011;4895;50.926;6.870;2023-02-28T15:08:24;6.53;;;3.10;;
9712;SDS011;4895;50.926;6.870;2023-02-28T15:13:18;4.43;;;3.30;;
9712;SDS011;4895;50.926;6.870;2023-02-28T15:15:57;5.23;;;3.30;;
9712;SDS011;4895;50.926;6.870;2023-02-28T15:18:29;4.70;;;3.30;;
9712;SDS011;4895;50.926;6.870;2023-02-28T15:21:02;5.20;;;3.23;;
9712;SDS011;4895;50.926;6.870;2023-02-28T15:23:31;4.13;;;3.40;;
9712;SDS011;4895;50.926;6.870;2023-02-28T15:25:59;4.77;;;2.90;;
9712;SDS011;4895;50.926;6.870;2023-02-28T15:28:24;6.03;;;3.70;;
9712;SDS011;4895;50.926;6.870;2023-02-28T15:31:03;4.87;;;3.00;;
9712;SDS011;4895;50.926;6.870;2023-02-28T15:33:52;4.27;;;3.30;;
9712;SDS011;4895;50.926;6.870;2023-02-28T15:36:19;4.73;;;3.03;;
9712;SDS011;4895;50.926;6.870;2023-02-28T15:38:50;4.23;;;3.20;;
9712;SDS011;4895;50.926;6.870;2023-02-28T15:41:21;5.03;;;3.40;;
9712;SDS011;4895;50.926;6.870;2023-02-28T15:49:34;6.90;;;3.10;;
9712;SDS011;4895;50.926;6.870;2023-02-28T15:52:03;5.33;;;2.70;;
9712;SDS011;4895;50.926;6.870;2023-02-28T15:54:29;5.90;;;3.10;;
9712;SDS011;4895;50.926;6.870;2023-02-28T15:56:59;10.10;;;3.30;;
9712;SDS011;4895;50.926;6.870;2023-02-28T15:59:29;6.70;;;3.30;;
9712;SDS011;4895;50.926;6.870;2023-02-28T16:02:30;8.43;;;3.80;;
9712;SDS011;4895;50.926;6.870;2023-02-28T16:07:24;4.53;;;3.27;;
9712;SDS011;4895;50.926;6.870;2023-02-28T16:09:49;4.13;;;2.97;;
9712;SDS011;4895;50.926;6.870;2023-02-28T16:12:15;6.17;;;3.33;;
9712;SDS011;4895;50.926;6.870;2023-02-28T16:14:41;7.20;;;3.90;;
9712;SDS011;4895;50.926;6.870;2023-02-28T16:17:10;6.70;;;3.40;;
9712;SDS011;4895;50.926;6.870;2023-02-28T16:19:47;6.07;;;3.60;;
9712;SDS011;4895;50.926;6.870;2023-02-28T16:22:12;6.23;;;3.43;;
9712;SDS011;4895;50.926;6.870;2023-02-28T16:24:37;8.13;;;3.37;;
9712;SDS011;4895;50.926;6.870;2023-02-28T16:27:03;5.73;;;3.00;;
9712;SDS011;4895;50.926;6.870;2023-02-28T16:29:31;6.30;;;3.53;;
9712;SDS011;4895;50.926;6.870;2023-02-28T16:31:57;6.30;;;3.47;;
9712;SDS011;4895;50.926;6.870;2023-02-28T16:34:24;4.60;;;3.00;;
9712;SDS011;4895;50.926;6.870;2023-02-28T16:36:49;5.97;;;3.80;;
9712;SDS011;4895;50.926;6.870;2023-02-28T16:39:15;7.40;;;3.40;;
9712;SDS011;4895;50.926;6.870;2023-02-28T16:41:44;5.20;;;3.20;;
9712;SDS011;4895;50.926;6.870;2023-02-28T16:44:11;4.30;;;3.27;;
9712;SDS011;4895;50.926;6.870;2023-02-28T16:46:38;6.50;;;3.40;;
9712;SDS011;4895;50.926;6.870;2023-02-28T16:49:04;5.20;;;3.03;;
9712;SDS011;4895;50.926;6.870;2023-02-28T16:51:29;5.50;;;3.33;;
9712;SDS011;4895;50.926;6.870;2023-02-28T16:53:55;5.93;;;3.40;;
9712;SDS011;4895;50.926;6.870;2023-02-28T16:56:21;6.33;;;3.37;;
9712;SDS011;4895;50.926;6.870;2023-02-28T16:58:48;5.47;;;3.30;;
9712;SDS011;4895;50.926;6.870;2023-02-28T17:01:14;5.33;;;3.20;;
9712;SDS011;4895;50.926;6.870;2023-02-28T17:03:40;11.10;;;3.00;;
9712;SDS011;4895;50.926;6.870;2023-02-28T17:06:06;5.70;;;3.00;;
9712;SDS011;4895;50.926;6.870;2023-02-28T17:08:37;5.00;;;2.87;;
9712;SDS011;4895;50.926;6.870;2023-02-28T17:11:03;5.47;;;3.17;;
9712;SDS011;4895;50.926;6.870;2023-02-28T17:13:28;8.57;;;2.70;;
9712;SDS011;4895;50.926;6.870;2023-02-28T17:15:54;4.50;;;3.27;;
9712;SDS011;4895;50.926;6.870;2023-02-28T17:18:19;7.57;;;3.17;;
9712;SDS011;4895;50.926;6.870;2023-02-28T17:20:46;4.83;;;3.10;;
9712;SDS011;4895;50.926;6.870;2023-02-28T17:23:12;9.90;;;3.90;;
9712;SDS011;4895;50.926;6.870;2023-02-28T17:25:38;9.13;;;3.47;;
9712;SDS011;4895;50.926;6.870;2023-02-28T17:28:03;5.73;;;3.50;;
9712;SDS011;4895;50.926;6.870;2023-02-28T17:30:35;5.70;;;3.70;;
9712;SDS011;4895;50.926;6.870;2023-02-28T17:33:01;6.77;;;3.50;;
9712;SDS011;4895;50.926;6.870;2023-02-28T17:35:26;5.17;;;3.57;;
9712;SDS011;4895;50.926;6.870;2023-02-28T17:37:52;4.90;;;3.47;;
9712;SDS011;4895;50.926;6.870;2023-02-28T17:40:22;8.47;;;3.63;;
9712;SDS011;4895;50.926;6.870;2023-02-28T17:42:48;4.43;;;3.17;;
9712;SDS011;4895;50.926;6.870;2023-02-28T17:45:14;5.77;;;3.53;;
9712;SDS011;4895;50.926;6.870;2023-02-28T17:47:40;7.17;;;3.33;;
9712;SDS011;4895;50.926;6.870;2023-02-28T17:50:11;7.20;;;3.70;;
9712;SDS011;4895;50.926;6.870;2023-02-28T17:52:38;5.80;;;3.67;;
9712;SDS011;4895;50.926;6.870;2023-02-28T17:55:03;6.00;;;3.77;;
9712;SDS011;4895;50.926;6.870;2023-02-28T17:57:29;6.70;;;3.50;;
9712;SDS011;4895;50.926;6.870;2023-02-28T17:59:54;5.40;;;3.30;;
9712;SDS011;4895;50.926;6.870;2023-02-28T18:02:19;6.40;;;3.70;;
9712;SDS011;4895;50.926;6.870;2023-02-28T18:04:45;5.13;;;3.13;;
9712;SDS011;4895;50.926;6.870;2023-02-28T18:07:10;5.83;;;3.50;;
9712;SDS011;4895;50.926;6.870;2023-02-28T18:09:36;13.00;;;5.30;;
9712;SDS011;4895;50.926;6.870;2023-02-28T18:12:02;8.40;;;5.07;;